createdAt,value
2022-08-21T00:01:27.702Z,85.78
2022-08-21T00:16:29.428Z,85.63
2022-08-21T00:31:31.018Z,82.58
2022-08-21T00:46:32.785Z,86.73
2022-08-21T01:01:34.641Z,82.34
2022-08-21T01:16:36.223Z,83.80
2022-08-21T01:31:38.283Z,88.78
2022-08-21T01:46:39.821Z,94.28
2022-08-21T02:01:41.453Z,95.75
2022-08-21T02:16:43.951Z,98.51
2022-08-21T02:31:46.813Z,90.16
2022-08-21T02:46:48.377Z,86.85
2022-08-21T03:01:50.026Z,94.66
2022-08-21T03:16:51.603Z,90.92
2022-08-21T03:31:55.125Z,80.59
2022-08-21T03:46:57.380Z,89.70
2022-08-21T04:02:02.128Z,84.14
2022-08-21T04:17:03.874Z,81.10
2022-08-21T04:32:05.485Z,87.00
2022-08-21T04:47:07.103Z,90.16
2022-08-21T05:02:09.835Z,85.95
2022-08-21T05:17:11.663Z,88.49
2022-08-21T05:32:14.094Z,80.96
2022-08-21T05:47:15.986Z,82.06
2022-08-21T06:02:21.048Z,81.81
2022-08-21T06:17:22.618Z,73.72
2022-08-21T06:32:24.426Z,76.59
2022-08-21T06:47:26.414Z,77.54
2022-08-21T07:02:28.248Z,79.29
2022-08-21T07:17:29.780Z,78.48
2022-08-21T07:32:31.405Z,77.55
2022-08-21T07:47:42.030Z,69.14
2022-08-21T08:02:50.518Z,65.86
2022-08-21T08:17:52.184Z,64.94
2022-08-21T08:32:54.049Z,66.08
2022-08-21T08:48:01.929Z,63.54
2022-08-21T09:03:04.424Z,62.61
2022-08-21T09:18:16.532Z,64.63
2022-08-21T09:33:18.521Z,61.56
2022-08-21T09:48:21.515Z,60.44
2022-08-21T10:03:25.502Z,59.60
2022-08-21T10:18:43.969Z,56.86
2022-08-21T10:33:57.617Z,62.02
2022-08-21T10:49:03.285Z,61.23
2022-08-21T11:04:18.346Z,62.93
2022-08-21T11:19:31.787Z,57.74
2022-08-21T11:34:33.323Z,58.53
2022-08-21T11:49:37.639Z,58.65
2022-08-21T12:04:44.952Z,60.20
2022-08-21T12:20:02.037Z,62.76
2022-08-21T12:35:15.529Z,62.50
2022-08-21T12:50:29.229Z,63.52
2022-08-21T13:05:33.020Z,67.89
2022-08-21T13:20:36.035Z,66.05
2022-08-21T13:35:48.198Z,64.37
2022-08-21T13:50:50.423Z,63.85
2022-08-21T14:05:51.962Z,66.75
2022-08-21T14:21:04.409Z,73.94
2022-08-21T14:36:06.275Z,79.53
2022-08-21T14:51:07.802Z,75.61
2022-08-21T15:06:09.889Z,90.47
2022-08-21T15:21:11.481Z,83.18
2022-08-21T15:36:13.031Z,80.43
2022-08-21T15:51:15.372Z,78.69
2022-08-21T16:06:17.021Z,75.60
2022-08-21T16:21:18.639Z,82.68
2022-08-21T16:36:20.891Z,87.22
2022-08-21T16:51:22.992Z,85.74
2022-08-21T17:06:28.094Z,94.34
2022-08-21T17:21:30.838Z,94.60
2022-08-21T17:36:32.420Z,94.22
2022-08-21T17:51:34.298Z,92.83
2022-08-21T18:06:36.134Z,95.63
2022-08-21T18:21:37.907Z,89.56
2022-08-21T18:36:39.516Z,91.81
2022-08-21T18:51:44.851Z,94.05
2022-08-21T19:06:47.186Z,94.59
2022-08-21T19:21:49.377Z,93.06
2022-08-21T19:36:51.216Z,86.81
2022-08-21T19:51:53.461Z,82.56
2022-08-21T20:06:55.272Z,85.35
2022-08-21T20:21:58.433Z,89.69
2022-08-21T20:37:00.822Z,95.28
2022-08-21T20:52:03.948Z,92.11
2022-08-21T21:07:09.065Z,87.64
2022-08-21T21:22:14.376Z,93.37
2022-08-21T21:37:25.857Z,87.29
2022-08-21T21:52:37.783Z,90.66
2022-08-21T22:16:08.012Z,88.36
2022-08-21T22:31:18.348Z,92.14
2022-08-21T22:46:31.714Z,89.67
2022-08-21T23:01:41.549Z,84.75
2022-08-21T23:17:10.585Z,89.28
2022-08-21T23:47:51.046Z,89.80
